createdAt,value
2023-04-15T00:01:27.649Z,5.5
2023-04-15T00:03:35.173Z,5.5
2023-04-15T00:05:38.557Z,5.5
2023-04-15T00:07:42.355Z,5.4
2023-04-15T00:09:46.203Z,5.3
2023-04-15T00:11:49.976Z,5.3
2023-04-15T00:13:53.804Z,5.4
2023-04-15T00:15:57.610Z,5.3
2023-04-15T00:18:04.674Z,5.2
2023-04-15T00:20:08.507Z,5.2
2023-04-15T00:22:12.332Z,5.2
2023-04-15T00:24:16.096Z,5.1
2023-04-15T00:26:19.931Z,5.1
2023-04-15T00:28:23.727Z,5
2023-04-15T00:30:27.573Z,5
2023-04-15T00:32:34.656Z,5
2023-04-15T00:34:38.462Z,4.9
2023-04-15T00:36:42.233Z,4.9
2023-04-15T00:38:46.057Z,4.9
2023-04-15T00:40:49.883Z,4.9
2023-04-15T00:42:53.661Z,4.8
2023-04-15T00:44:57.474Z,4.7
2023-04-15T00:49:08.353Z,4.7
2023-04-15T00:51:12.145Z,4.7
2023-04-15T00:53:30.601Z,4.7
2023-04-15T00:55:34.395Z,4.6
2023-04-15T00:57:38.177Z,4.7
2023-04-15T00:59:45.270Z,4.7
2023-04-15T01:01:49.186Z,4.7
2023-04-15T01:03:53.086Z,4.7
2023-04-15T01:05:56.664Z,4.7
2023-04-15T01:08:00.517Z,4.8
2023-04-15T01:10:04.297Z,4.7
2023-04-15T01:12:08.063Z,4.7
2023-04-15T01:16:18.996Z,4.6
2023-04-15T01:26:37.922Z,4.4
2023-04-15T01:32:52.672Z,4.5
2023-04-15T01:34:56.374Z,4.4
2023-04-15T01:43:14.834Z,4.4
2023-04-15T01:48:25.951Z,4.4
2023-04-15T01:50:29.774Z,4.3
2023-04-15T01:52:33.550Z,4.3
2023-04-15T01:54:37.337Z,4.2
2023-04-15T01:56:44.396Z,4.2
2023-04-15T01:58:48.187Z,4.2
2023-04-15T02:00:52.021Z,4.2
2023-04-15T02:02:55.852Z,4.2
2023-04-15T02:04:59.601Z,4.1
2023-04-15T02:15:21.815Z,4.2
2023-04-15T02:19:29.449Z,4
2023-04-15T02:23:36.977Z,4
2023-04-15T02:25:54.039Z,4
2023-04-15T02:27:47.815Z,4
2023-04-15T02:29:51.622Z,4.1
2023-04-15T02:38:06.770Z,4
2023-04-15T02:42:17.605Z,3.9
2023-04-15T02:44:21.415Z,3.9
2023-04-15T02:45:24.941Z,4
2023-04-15T02:51:36.313Z,3.9
2023-04-15T02:53:43.381Z,3.9
2023-04-15T03:10:16.958Z,3.8
2023-04-15T03:18:32.085Z,3.8
2023-04-15T03:28:54.302Z,3.7
2023-04-15T03:30:58.127Z,3.7
2023-04-15T03:41:20.283Z,3.6
2023-04-15T03:42:23.813Z,3.6
2023-04-15T03:44:27.612Z,3.6
2023-04-15T03:46:31.411Z,3.5
2023-04-15T03:48:35.155Z,3.5
2023-04-15T03:50:42.198Z,3.5
2023-04-15T03:52:46.005Z,3.5
2023-04-15T03:54:49.802Z,3.5
2023-04-15T03:56:53.538Z,3.6
2023-04-15T03:58:57.310Z,3.6
2023-04-15T04:01:01.111Z,3.5
2023-04-15T04:03:05.216Z,3.5
2023-04-15T04:25:52.944Z,3.5
2023-04-15T04:27:56.726Z,3.5
2023-04-15T04:40:37.936Z,3.4
2023-04-15T04:42:41.720Z,3.4
2023-04-15T04:44:45.493Z,3.5
2023-04-15T04:46:52.526Z,3.5
2023-04-15T04:48:56.329Z,3.5
2023-04-15T04:51:00.092Z,3.5
2023-04-15T04:53:03.848Z,3.6
2023-04-15T04:55:07.638Z,3.5
2023-04-15T04:57:11.401Z,3.5
2023-04-15T04:59:15.183Z,3.5
2023-04-15T05:01:22.340Z,3.6
2023-04-15T05:03:26.133Z,3.6
2023-04-15T05:05:29.790Z,3.7
2023-04-15T05:07:33.534Z,3.7
2023-04-15T05:15:52.429Z,3.8
2023-04-15T05:17:56.200Z,3.8
2023-04-15T05:19:59.960Z,3.8
2023-04-15T05:22:03.720Z,3.8
2023-04-15T05:24:07.482Z,3.9
2023-04-15T05:26:11.272Z,4
2023-04-15T05:28:15.031Z,4.1
2023-04-15T05:30:22.102Z,4.2
2023-04-15T05:32:25.873Z,4.2
2023-04-15T05:34:29.604Z,4.3
2023-04-15T05:35:34.782Z,4.5
2023-04-15T05:37:38.544Z,4.5
2023-04-15T05:39:42.319Z,4.7
2023-04-15T05:41:46.081Z,4.8
2023-04-15T05:43:53.145Z,5.6
2023-04-15T05:45:56.947Z,6.1
2023-04-15T05:48:00.767Z,6.7
2023-04-15T05:54:12.059Z,8.2
2023-04-15T05:58:22.914Z,8.6
2023-04-15T06:00:26.689Z,8.8
2023-04-15T06:04:34.559Z,9.5
2023-04-15T06:06:38.110Z,9.9
2023-04-15T06:08:41.923Z,9.9
2023-04-15T06:10:45.735Z,10.4
2023-04-15T06:12:52.851Z,10.1
2023-04-15T06:14:57.926Z,10.2
2023-04-15T06:17:00.440Z,9.7
2023-04-15T06:19:04.277Z,9.4
2023-04-15T06:21:08.095Z,8.8
2023-04-15T06:32:34.127Z,9.1
2023-04-15T06:34:37.921Z,9.5
2023-04-15T06:36:41.780Z,9.8
2023-04-15T06:38:45.613Z,9.8
2023-04-15T06:40:52.717Z,9.5
2023-04-15T06:42:56.570Z,9
2023-04-15T06:45:00.400Z,8.8
2023-04-15T06:47:04.236Z,8.8
2023-04-15T06:49:08.088Z,8.5
2023-04-15T06:51:11.940Z,8.3
2023-04-15T06:53:15.772Z,8.1
2023-04-15T06:55:22.890Z,7.8
2023-04-15T06:57:26.741Z,7.9
2023-04-15T06:59:30.596Z,7.9
2023-04-15T07:01:34.480Z,7.8
2023-04-15T07:03:38.276Z,7.8
2023-04-15T07:05:42.126Z,7.7
2023-04-15T07:09:53.092Z,8
2023-04-15T07:11:56.922Z,8
2023-04-15T07:14:00.771Z,7.9
2023-04-15T07:16:04.614Z,8.1
2023-04-15T07:18:08.464Z,8.3
2023-04-15T07:20:12.306Z,8.5
2023-04-15T07:22:16.149Z,8.9
2023-04-15T07:24:23.273Z,9
2023-04-15T07:28:30.995Z,9.7
2023-04-15T07:29:34.543Z,10.3
2023-04-15T07:33:42.250Z,10.7
2023-04-15T07:35:46.101Z,10.3
2023-04-15T07:39:57.115Z,9.4
2023-04-15T07:42:00.962Z,9.2
2023-04-15T07:48:12.555Z,9.5
2023-04-15T07:50:16.411Z,9.6
2023-04-15T07:52:23.525Z,9.6
2023-04-15T07:54:27.389Z,9.6
2023-04-15T07:56:31.274Z,10
2023-04-15T08:00:38.989Z,10.2
2023-04-15T08:02:43.020Z,10.6
2023-04-15T08:04:46.863Z,11
2023-04-15T08:06:53.824Z,10.6
2023-04-15T08:08:57.783Z,10.7
2023-04-15T08:11:01.527Z,10.7
2023-04-15T08:13:05.389Z,10.6
2023-04-15T08:15:09.296Z,10.6
2023-04-15T08:23:28.018Z,11.2
2023-04-15T08:25:31.856Z,11.3
2023-04-15T08:34:11.540Z,10.6
2023-04-15T08:38:19.264Z,10.8
2023-04-15T08:42:27.003Z,11
2023-04-15T08:44:30.872Z,10.8
2023-04-15T08:46:34.889Z,10.8
2023-04-15T08:48:41.879Z,10.6
2023-04-15T09:07:19.991Z,12
2023-04-15T09:22:48.139Z,11.6
2023-04-15T09:24:52.028Z,11.8
2023-04-15T09:26:55.883Z,11.7
2023-04-15T09:28:59.780Z,11.4
2023-04-15T09:31:06.959Z,11.4
2023-04-15T09:33:10.773Z,11.3
2023-04-15T09:35:14.666Z,11.5
2023-04-15T09:39:22.371Z,11.8
2023-04-15T09:45:37.298Z,11.3
2023-04-15T09:47:41.179Z,11.4
2023-04-15T09:52:04.006Z,11.6
2023-04-15T09:53:52.798Z,11.9
2023-04-15T09:55:56.673Z,12.4
2023-04-15T10:00:07.674Z,12.5
2023-04-15T10:04:15.445Z,12.8
2023-04-15T10:06:19.136Z,12.6
2023-04-15T10:08:23.032Z,12.1
2023-04-15T10:14:37.918Z,12.2
2023-04-15T10:16:41.768Z,12.2
2023-04-15T10:18:45.658Z,12.2
2023-04-15T10:19:49.212Z,12.7
2023-04-15T10:21:53.073Z,12.6
2023-04-15T10:23:56.933Z,12.4
2023-04-15T10:26:00.816Z,12.1
2023-04-15T10:28:07.956Z,12.3
2023-04-15T10:30:11.817Z,12.2
2023-04-15T10:34:19.568Z,12.9
2023-04-15T10:40:31.165Z,11.9
2023-04-15T10:42:38.340Z,11.9
2023-04-15T10:44:42.175Z,11.9
2023-04-15T10:46:46.076Z,12.2
2023-04-15T10:48:49.968Z,12.3
2023-04-15T10:50:53.803Z,12.1
2023-04-15T11:16:50.401Z,12.5
2023-04-15T11:18:54.234Z,12.4
2023-04-15T11:20:58.096Z,12.4
2023-04-15T11:27:12.964Z,12
2023-04-15T11:29:16.822Z,12.4
2023-04-15T11:31:20.707Z,12.4
2023-04-15T11:33:26.211Z,12.4
2023-04-15T11:43:48.725Z,11.9
2023-04-15T11:47:56.499Z,12.2
2023-04-15T11:50:00.324Z,11.8
2023-04-15T11:52:04.150Z,11.8
2023-04-15T11:56:15.194Z,12.2
2023-04-15T12:00:22.908Z,13.6
2023-04-15T12:02:26.888Z,13
2023-04-15T12:04:30.699Z,12.8
2023-04-15T12:06:34.500Z,13
2023-04-15T12:08:41.644Z,13.7
2023-04-15T12:12:49.366Z,13.4
2023-04-15T12:15:14.173Z,12.7
2023-04-15T12:17:18.069Z,12.5
2023-04-15T12:19:21.931Z,12.2
2023-04-15T12:21:29.042Z,12.3
2023-04-15T12:23:32.888Z,12.2
2023-04-15T12:25:36.752Z,12.2
2023-04-15T12:31:48.385Z,12.7
2023-04-15T12:35:59.364Z,13.6
2023-04-15T13:00:48.924Z,12.7
2023-04-15T13:02:52.873Z,12.5
2023-04-15T13:07:03.798Z,12.3
2023-04-15T13:09:07.651Z,12.2
2023-04-15T13:10:11.200Z,12.1
2023-04-15T13:14:18.948Z,12
2023-04-15T13:16:22.833Z,11.8
2023-04-15T13:18:29.913Z,11.6
2023-04-15T13:22:37.691Z,12
2023-04-15T13:26:45.441Z,11.8
2023-04-15T13:35:04.208Z,11.4
2023-04-15T13:39:11.928Z,11.1
2023-04-15T13:43:19.661Z,10.8
2023-04-15T13:47:30.713Z,10.9
2023-04-15T13:59:53.980Z,10.6
2023-04-15T14:02:01.193Z,10.6
2023-04-15T14:04:05.374Z,10.6
2023-04-15T14:06:08.857Z,10.6
2023-04-15T14:09:16.290Z,10.6
2023-04-15T14:11:20.159Z,10.4
2023-04-15T14:17:35.016Z,10.3
2023-04-15T14:19:38.848Z,10.3
2023-04-15T14:21:42.743Z,10.3
2023-04-15T14:36:13.056Z,10
2023-04-15T14:40:20.785Z,9.9
2023-04-15T14:46:35.679Z,9.6
2023-04-15T14:48:39.513Z,9.7
2023-04-15T14:56:54.982Z,10
2023-04-15T15:03:09.924Z,10.1
2023-04-15T15:04:13.469Z,10
2023-04-15T15:06:17.269Z,9.9
2023-04-15T15:08:21.126Z,9.9
2023-04-15T15:10:45.016Z,9.8
2023-04-15T15:14:35.992Z,9.6
2023-04-15T15:16:39.831Z,9.7
2023-04-15T15:37:21.762Z,9.7
2023-04-15T15:41:32.777Z,9.7
2023-04-15T15:43:36.618Z,9.6
2023-04-15T15:45:40.525Z,9.7
2023-04-15T15:49:48.253Z,9.7
2023-04-15T15:53:55.932Z,9.5
2023-04-15T15:56:03.097Z,9.4
2023-04-15T15:58:06.948Z,9.4
2023-04-15T16:00:12.816Z,9.4
2023-04-15T16:02:59.905Z,9.5
2023-04-15T16:04:37.511Z,9.5
2023-04-15T16:06:41.318Z,9.4
2023-04-15T16:08:48.472Z,9.5
2023-04-15T16:10:52.037Z,9.5
2023-04-15T16:12:55.904Z,9.5
2023-04-15T16:14:59.733Z,9.4
2023-04-15T16:17:03.583Z,9.4
2023-04-15T16:23:18.516Z,9.1
2023-04-15T16:27:26.201Z,9.1
2023-04-15T16:31:33.948Z,9.1
2023-04-15T16:44:00.405Z,8.9
2023-04-15T16:50:12.003Z,8.8
2023-04-15T16:52:19.123Z,8.7
2023-04-15T16:54:22.983Z,8.7
2023-04-15T16:56:26.862Z,8.7
2023-04-15T16:57:50.703Z,8.7
2023-04-15T16:59:34.282Z,8.7
2023-04-15T17:01:38.194Z,8.7
2023-04-15T17:03:42.177Z,8.7
2023-04-15T17:05:49.123Z,8.6
2023-04-15T17:07:53.039Z,8.6
2023-04-15T17:09:56.890Z,8.6
2023-04-15T17:12:00.744Z,8.6
2023-04-15T17:30:40.392Z,8.5
2023-04-15T17:32:44.266Z,8.5
2023-04-15T17:36:55.200Z,8.4
2023-04-15T17:38:59.036Z,8.5
2023-04-15T17:41:02.912Z,8.4
2023-04-15T17:43:06.771Z,8.4
2023-04-15T17:45:10.631Z,8.4
2023-04-15T17:47:14.480Z,8.4
2023-04-15T17:49:21.625Z,8.4
2023-04-15T17:53:29.344Z,8.3
2023-04-15T17:54:32.891Z,8.3
2023-04-15T17:56:36.769Z,8.3
2023-04-15T18:00:45.571Z,8.2
2023-04-15T18:02:51.851Z,8.2
2023-04-15T18:04:55.525Z,8.2
2023-04-15T18:06:59.352Z,8.2
2023-04-15T18:09:03.425Z,8.2
2023-04-15T18:11:07.031Z,8.2
2023-04-15T18:13:10.880Z,8.2
2023-04-15T18:15:14.706Z,8.2
2023-04-15T18:17:21.890Z,8.2
2023-04-15T18:19:25.699Z,8.2
2023-04-15T18:21:29.542Z,8.2
2023-04-15T18:23:33.382Z,8.2
2023-04-15T18:25:37.272Z,8.2
2023-04-15T18:27:41.102Z,8.2
2023-04-15T18:31:52.103Z,8.2
2023-04-15T18:33:55.925Z,8.2
2023-04-15T18:38:03.612Z,8.3
2023-04-15T18:42:11.358Z,8.2
2023-04-15T18:44:15.217Z,8.2
2023-04-15T18:48:26.172Z,8.2
2023-04-15T18:50:30.055Z,8.1
2023-04-15T18:51:33.616Z,8.1
2023-04-15T19:01:56.181Z,7.4
2023-04-15T19:06:03.843Z,7.4
2023-04-15T19:08:07.658Z,7.3
2023-04-15T19:20:37.798Z,7.4
2023-04-15T19:22:37.871Z,7.4
2023-04-15T19:24:41.724Z,7.4
2023-04-15T19:26:45.568Z,7.4
2023-04-15T19:28:52.700Z,7.4
2023-04-15T19:30:56.601Z,7.4
2023-04-15T19:43:22.905Z,7.3
2023-04-15T19:49:55.352Z,7.4
2023-04-15T19:51:59.204Z,7.4
2023-04-15T19:54:03.040Z,7.4
2023-04-15T19:56:10.156Z,7.4
2023-04-15T19:58:14.014Z,7.4
2023-04-15T20:00:17.846Z,7.4
2023-04-15T20:31:22.107Z,7.5
2023-04-15T20:43:48.417Z,7.5
2023-04-15T20:44:51.978Z,7.5
2023-04-15T20:46:55.929Z,7.5
2023-04-15T20:51:03.532Z,7.4
2023-04-15T20:53:10.637Z,7.5
2023-04-15T21:07:40.846Z,7.4
2023-04-15T21:20:03.926Z,7.4
2023-04-15T21:24:14.857Z,7.4
2023-04-15T21:26:18.674Z,7.4
2023-04-15T21:28:22.553Z,7.4
2023-04-15T21:30:27.960Z,7.4
2023-04-15T21:32:30.242Z,7.5
2023-04-15T21:34:34.062Z,7.5
2023-04-15T21:36:41.193Z,7.5
2023-04-15T21:38:45.039Z,7.5
2023-04-15T21:40:48.872Z,7.5
2023-04-15T21:41:52.449Z,7.5
2023-04-15T21:43:56.296Z,7.5
2023-04-15T21:46:23.469Z,7.5
2023-04-15T21:48:07.397Z,7.5
2023-04-15T21:50:11.106Z,7.5
2023-04-15T21:52:14.933Z,7.5
2023-04-15T21:58:26.449Z,7.5
2023-04-15T22:04:41.250Z,7.6
2023-04-15T22:10:52.784Z,7.5
2023-04-15T22:17:04.388Z,7.5
2023-04-15T22:19:11.451Z,7.6
2023-04-15T22:21:15.288Z,7.5
2023-04-15T22:23:19.100Z,7.5
2023-04-15T22:25:22.955Z,7.6
2023-04-15T22:29:30.652Z,7.5
2023-04-15T22:33:41.612Z,7.6
2023-04-15T22:38:52.882Z,7.6
2023-04-15T22:40:56.722Z,7.6
2023-04-15T22:47:11.530Z,7.6
2023-04-15T22:49:15.363Z,7.6
2023-04-15T22:51:19.215Z,7.6
2023-04-15T22:53:23.053Z,7.6
2023-04-15T23:03:56.828Z,7.6
2023-04-15T23:05:49.419Z,7.6
2023-04-15T23:07:53.264Z,7.6
2023-04-15T23:09:57.118Z,7.6
2023-04-15T23:12:00.970Z,7.6
2023-04-15T23:16:11.919Z,7.6
2023-04-15T23:28:36.624Z,7.6
2023-04-15T23:32:47.610Z,7.6
2023-04-15T23:37:16.493Z,7.6
2023-04-15T23:39:20.351Z,7.6
2023-04-15T23:41:24.206Z,7.6
2023-04-15T23:43:31.306Z,7.6
2023-04-15T23:49:42.869Z,7.6
2023-04-15T23:51:46.716Z,7.6
